createdAt,value
2019-05-22T00:00:32.672Z,10.63
2019-05-22T00:03:03.508Z,10.05
2019-05-22T00:05:34.176Z,9.15
2019-05-22T00:08:05.392Z,8.88
2019-05-22T00:10:38.632Z,8.40
2019-05-22T00:13:10.691Z,11.20
2019-05-22T00:15:41.055Z,10.45
2019-05-22T00:18:12.623Z,12.17
2019-05-22T00:20:44.387Z,10.28
2019-05-22T00:23:15.418Z,9.90
2019-05-22T00:25:47.602Z,11.93
2019-05-22T00:28:17.915Z,7.70
2019-05-22T00:30:50.037Z,8.80
2019-05-22T00:33:19.875Z,8.70
2019-05-22T00:35:51.386Z,10.60
2019-05-22T00:38:22.922Z,10.05
2019-05-22T00:40:58.989Z,8.65
2019-05-22T00:43:31.659Z,10.48
2019-05-22T00:46:05.238Z,7.75
2019-05-22T00:48:36.252Z,10.72
2019-05-22T00:51:29.863Z,9.78
2019-05-22T00:54:29.858Z,8.95
2019-05-22T00:57:17.666Z,11.15
2019-05-22T00:59:49.182Z,8.38
2019-05-22T01:02:21.802Z,7.50
2019-05-22T01:04:54.280Z,9.43
2019-05-22T01:07:30.407Z,9.70
2019-05-22T01:10:02.437Z,10.80
2019-05-22T01:12:37.245Z,8.35
2019-05-22T01:15:08.618Z,10.30
2019-05-22T01:17:40.966Z,11.03
2019-05-22T01:20:16.633Z,9.88
2019-05-22T01:22:48.807Z,11.07
2019-05-22T01:25:22.098Z,10.40
2019-05-22T01:27:52.750Z,11.03
2019-05-22T01:30:38.548Z,11.43
2019-05-22T01:33:16.800Z,8.28
2019-05-22T01:35:55.267Z,9.35
2019-05-22T01:38:25.966Z,9.50
2019-05-22T01:40:59.117Z,10.50
2019-05-22T01:43:29.925Z,8.77
2019-05-22T01:46:01.441Z,10.10
2019-05-22T01:48:36.875Z,9.73
2019-05-22T01:51:07.549Z,10.80
2019-05-22T01:53:41.145Z,8.58
2019-05-22T01:56:12.785Z,8.07
2019-05-22T01:58:43.794Z,7.17
2019-05-22T02:01:16.822Z,9.75
2019-05-22T02:03:47.883Z,8.05
2019-05-22T02:06:19.942Z,9.03
2019-05-22T02:08:53.438Z,8.55
2019-05-22T02:11:25.770Z,10.08
2019-05-22T02:14:03.989Z,8.88
2019-05-22T02:16:34.493Z,8.78
2019-05-22T02:19:05.496Z,10.68
2019-05-22T02:21:35.766Z,8.48
2019-05-22T02:24:06.470Z,8.40
2019-05-22T02:26:36.974Z,8.63
2019-05-22T02:29:08.879Z,7.47
2019-05-22T02:31:40.703Z,8.78
2019-05-22T02:34:10.852Z,8.25
2019-05-22T02:36:42.433Z,7.12
2019-05-22T02:39:27.151Z,7.53
2019-05-22T02:42:00.577Z,8.20
2019-05-22T02:44:31.475Z,7.15
2019-05-22T02:47:18.133Z,5.83
2019-05-22T02:49:33.903Z,7.05
2019-05-22T02:52:05.521Z,6.47
2019-05-22T02:54:36.151Z,7.70
2019-05-22T02:57:07.629Z,7.20
2019-05-22T02:59:37.584Z,7.37
2019-05-22T03:02:07.761Z,7.35
2019-05-22T03:05:09.925Z,6.55
2019-05-22T03:07:42.072Z,7.10
2019-05-22T03:10:18.257Z,7.80
2019-05-22T03:12:49.711Z,8.05
2019-05-22T03:15:22.033Z,5.72
2019-05-22T03:17:55.279Z,6.92
2019-05-22T03:20:26.594Z,6.87
2019-05-22T03:23:12.298Z,6.25
2019-05-22T03:25:43.767Z,6.90
2019-05-22T03:28:14.998Z,6.87
2019-05-22T03:30:45.805Z,7.00
2019-05-22T03:33:16.320Z,5.00
2019-05-22T03:35:48.583Z,5.42
2019-05-22T03:38:19.205Z,6.57
2019-05-22T03:40:52.442Z,6.03
2019-05-22T03:43:24.633Z,5.53
2019-05-22T03:45:56.383Z,6.35
2019-05-22T03:48:28.432Z,6.67
2019-05-22T03:51:08.732Z,6.70
2019-05-22T03:53:38.487Z,5.90
2019-05-22T03:56:09.191Z,6.65
2019-05-22T03:58:38.993Z,6.12
2019-05-22T04:01:09.093Z,6.12
2019-05-22T04:03:39.114Z,8.58
2019-05-22T04:06:10.043Z,5.90
2019-05-22T04:08:39.787Z,5.63
2019-05-22T04:11:13.250Z,6.60
2019-05-22T04:13:43.119Z,4.53
2019-05-22T04:16:16.171Z,6.15
2019-05-22T04:18:46.656Z,6.20
2019-05-22T04:21:16.751Z,5.30
2019-05-22T04:23:46.415Z,5.83
2019-05-22T04:26:16.763Z,5.40
2019-05-22T04:28:53.002Z,4.92
2019-05-22T04:31:36.542Z,5.33
2019-05-22T04:34:06.435Z,5.30
2019-05-22T04:36:37.127Z,5.55
2019-05-22T04:39:11.889Z,5.42
2019-05-22T04:41:43.593Z,5.67
2019-05-22T04:44:13.411Z,5.60
2019-05-22T04:46:44.587Z,6.92
2019-05-22T04:49:15.478Z,6.70
2019-05-22T04:51:45.347Z,8.38
2019-05-22T04:54:15.500Z,6.03
2019-05-22T04:56:45.290Z,7.55
2019-05-22T04:59:15.776Z,5.97
2019-05-22T05:01:46.246Z,8.43
2019-05-22T05:04:16.020Z,8.10
2019-05-22T05:06:46.029Z,8.73
2019-05-22T05:09:16.291Z,8.05
2019-05-22T05:11:46.882Z,7.53
2019-05-22T05:14:17.046Z,7.30
2019-05-22T05:16:47.654Z,8.08
2019-05-22T05:19:18.518Z,6.37
2019-05-22T05:21:48.804Z,6.28
2019-05-22T05:24:19.140Z,6.95
2019-05-22T05:26:50.506Z,5.53
2019-05-22T05:29:28.730Z,6.10
2019-05-22T05:31:59.105Z,7.30
2019-05-22T05:34:40.700Z,5.92
2019-05-22T05:37:12.333Z,6.67
2019-05-22T05:40:26.325Z,5.83
2019-05-22T05:42:56.587Z,6.67
2019-05-22T05:45:28.307Z,7.55
2019-05-22T05:47:59.585Z,5.08
2019-05-22T05:50:39.741Z,6.08
2019-05-22T05:53:03.591Z,5.17
2019-05-22T05:56:19.662Z,8.53
2019-05-22T05:58:49.726Z,6.27
2019-05-22T06:01:25.891Z,6.37
2019-05-22T06:03:57.696Z,5.85
2019-05-22T06:07:14.601Z,6.42
2019-05-22T06:09:46.992Z,7.05
2019-05-22T06:12:16.818Z,8.15
2019-05-22T06:14:47.473Z,6.37
2019-05-22T06:17:54.719Z,7.13
2019-05-22T06:20:25.149Z,8.60
2019-05-22T06:23:52.534Z,7.63
2019-05-22T06:27:11.683Z,8.20
2019-05-22T06:30:07.219Z,8.88
2019-05-22T06:33:37.120Z,8.10
2019-05-22T06:36:14.462Z,9.38
2019-05-22T06:38:51.879Z,8.58
2019-05-22T06:41:29.271Z,7.50
2019-05-22T06:44:56.110Z,7.10
2019-05-22T06:47:27.966Z,7.25
2019-05-22T06:49:58.676Z,7.03
2019-05-22T06:52:29.059Z,7.75
2019-05-22T06:54:59.518Z,9.07
2019-05-22T06:57:36.565Z,6.00
2019-05-22T07:00:21.795Z,8.53
2019-05-22T07:02:51.755Z,7.28
2019-05-22T07:05:23.074Z,6.15
2019-05-22T07:07:53.531Z,9.18
2019-05-22T07:10:23.560Z,8.73
2019-05-22T07:12:54.487Z,9.45
2019-05-22T07:15:45.999Z,7.12
2019-05-22T07:18:19.962Z,8.40
2019-05-22T07:20:52.427Z,8.30
2019-05-22T07:23:28.452Z,7.05
2019-05-22T07:26:01.822Z,6.70
2019-05-22T07:28:32.254Z,6.67
2019-05-22T07:31:03.074Z,6.87
2019-05-22T07:33:33.811Z,6.97
2019-05-22T07:36:10.111Z,5.80
2019-05-22T07:38:36.500Z,6.95
2019-05-22T07:41:07.849Z,4.97
2019-05-22T07:43:41.333Z,7.30
2019-05-22T07:46:10.625Z,5.25
2019-05-22T07:48:41.558Z,7.87
2019-05-22T07:51:12.756Z,6.45
2019-05-22T07:53:43.186Z,6.23
2019-05-22T07:56:14.855Z,5.92
2019-05-22T07:58:45.839Z,5.80
2019-05-22T08:01:17.473Z,5.03
2019-05-22T08:03:48.950Z,6.60
2019-05-22T08:06:18.834Z,5.85
2019-05-22T08:08:50.628Z,5.50
2019-05-22T08:11:20.742Z,6.37
2019-05-22T08:13:51.194Z,6.90
2019-05-22T08:16:22.062Z,5.90
2019-05-22T08:18:53.591Z,5.60
2019-05-22T08:21:24.157Z,6.53
2019-05-22T08:23:55.932Z,6.50
2019-05-22T08:26:27.113Z,6.67
2019-05-22T08:28:56.974Z,6.92
2019-05-22T08:31:28.558Z,6.50
2019-05-22T08:33:58.479Z,5.55
2019-05-22T08:36:29.091Z,6.22
2019-05-22T08:39:01.032Z,6.37
2019-05-22T08:41:35.312Z,6.85
2019-05-22T08:44:17.117Z,5.85
2019-05-22T08:46:40.027Z,5.58
2019-05-22T08:49:10.882Z,6.67
2019-05-22T08:51:41.101Z,5.45
2019-05-22T08:54:11.659Z,5.75
2019-05-22T08:56:46.222Z,4.50
2019-05-22T08:59:19.722Z,6.37
2019-05-22T09:01:49.363Z,6.12
2019-05-22T09:04:19.071Z,6.03
2019-05-22T09:06:48.959Z,6.03
2019-05-22T09:09:18.707Z,4.87
2019-05-22T09:11:48.620Z,5.47
2019-05-22T09:14:18.705Z,6.65
2019-05-22T09:16:48.541Z,6.15
2019-05-22T09:19:18.592Z,6.00
2019-05-22T09:21:48.878Z,6.60
2019-05-22T09:24:19.738Z,7.53
2019-05-22T09:26:50.532Z,7.67
2019-05-22T09:29:20.703Z,7.33
2019-05-22T09:31:51.102Z,7.03
2019-05-22T09:34:21.749Z,7.45
2019-05-22T09:36:51.875Z,6.28
2019-05-22T09:39:22.302Z,7.33
2019-05-22T09:41:52.015Z,6.12
2019-05-22T09:44:22.543Z,6.27
2019-05-22T09:46:52.302Z,7.47
2019-05-22T09:49:24.057Z,7.05
2019-05-22T09:51:54.607Z,7.20
2019-05-22T09:54:25.299Z,7.22
2019-05-22T09:56:55.560Z,7.67
2019-05-22T09:59:26.606Z,6.50
2019-05-22T10:01:57.121Z,5.35
2019-05-22T10:04:27.925Z,6.62
2019-05-22T10:06:58.675Z,5.87
2019-05-22T10:09:29.260Z,5.62
2019-05-22T10:11:59.674Z,6.37
2019-05-22T10:14:30.139Z,5.65
2019-05-22T10:17:00.515Z,6.08
2019-05-22T10:19:31.183Z,6.57
2019-05-22T10:22:01.159Z,5.65
2019-05-22T10:24:31.527Z,6.73
2019-05-22T10:27:02.050Z,6.53
2019-05-22T10:29:32.482Z,6.55
2019-05-22T10:32:02.641Z,5.47
2019-05-22T10:34:32.837Z,6.08
2019-05-22T10:37:02.683Z,6.50
2019-05-22T10:39:32.954Z,5.70
2019-05-22T10:42:02.829Z,4.33
2019-05-22T10:44:32.983Z,6.25
2019-05-22T10:47:03.298Z,4.87
2019-05-22T10:49:33.327Z,6.43
2019-05-22T10:52:02.998Z,5.78
2019-05-22T10:54:32.838Z,5.50
2019-05-22T10:57:02.906Z,6.63
2019-05-22T10:59:32.983Z,6.03
2019-05-22T11:02:03.421Z,5.85
2019-05-22T11:04:33.333Z,6.62
2019-05-22T11:07:04.118Z,5.55
2019-05-22T11:09:34.873Z,6.30
2019-05-22T11:12:06.820Z,6.50
2019-05-22T11:14:36.589Z,7.35
2019-05-22T11:17:07.855Z,5.45
2019-05-22T11:19:38.070Z,5.42
2019-05-22T11:22:09.807Z,6.00
2019-05-22T11:24:40.134Z,6.47
2019-05-22T11:27:42.763Z,7.40
2019-05-22T11:30:14.227Z,5.95
2019-05-22T11:32:44.859Z,6.75
2019-05-22T11:35:17.307Z,6.87
2019-05-22T11:37:47.627Z,6.30
2019-05-22T11:40:18.234Z,6.40
2019-05-22T11:42:48.295Z,5.87
2019-05-22T11:45:19.243Z,5.78
2019-05-22T11:47:49.333Z,7.75
2019-05-22T11:50:19.593Z,7.40
2019-05-22T11:52:49.451Z,6.80
2019-05-22T11:55:20.616Z,7.00
2019-05-22T11:57:51.943Z,6.72
2019-05-22T12:00:23.132Z,6.70
2019-05-22T12:02:54.350Z,6.12
2019-05-22T12:05:25.602Z,5.10
2019-05-22T12:07:56.065Z,5.80
2019-05-22T12:10:26.381Z,6.12
2019-05-22T12:12:56.145Z,6.10
2019-05-22T12:15:29.823Z,6.47
2019-05-22T12:18:00.691Z,7.12
2019-05-22T12:20:31.811Z,5.95
2019-05-22T12:23:01.988Z,6.75
2019-05-22T12:25:31.750Z,5.55
2019-05-22T12:28:01.720Z,5.97
2019-05-22T12:30:32.378Z,5.70
2019-05-22T12:33:02.924Z,7.28
2019-05-22T12:35:33.289Z,6.15
2019-05-22T12:38:03.940Z,5.70
2019-05-22T12:40:36.340Z,6.53
2019-05-22T12:43:06.663Z,6.50
2019-05-22T12:45:36.339Z,5.67
2019-05-22T12:48:07.647Z,5.20
2019-05-22T12:50:38.026Z,5.53
2019-05-22T12:53:09.378Z,4.85
2019-05-22T12:55:39.631Z,5.40
2019-05-22T12:58:09.629Z,5.47
2019-05-22T13:00:39.288Z,5.37
2019-05-22T13:03:09.299Z,5.35
2019-05-22T13:05:40.120Z,4.90
2019-05-22T13:08:11.871Z,4.72
2019-05-22T13:10:41.626Z,5.85
2019-05-22T13:13:11.744Z,5.33
2019-05-22T13:15:42.731Z,5.35
2019-05-22T13:18:14.679Z,4.78
2019-05-22T13:20:47.896Z,5.60
2019-05-22T13:23:19.412Z,5.40
2019-05-22T13:25:49.670Z,4.95
2019-05-22T13:28:20.162Z,4.58
2019-05-22T13:30:53.890Z,4.33
2019-05-22T13:33:27.671Z,3.92
2019-05-22T13:35:58.462Z,5.12
2019-05-22T13:38:28.990Z,4.83
2019-05-22T13:40:59.000Z,3.73
2019-05-22T13:43:28.785Z,4.70
2019-05-22T13:45:58.442Z,6.50
2019-05-22T13:48:28.934Z,5.08
2019-05-22T13:51:00.283Z,5.17
2019-05-22T13:53:32.145Z,4.97
2019-05-22T13:56:02.839Z,5.00
2019-05-22T13:58:34.457Z,4.53
2019-05-22T14:01:05.071Z,4.53
2019-05-22T14:03:34.858Z,5.03
2019-05-22T14:06:05.822Z,4.60
2019-05-22T14:08:35.979Z,4.85
2019-05-22T14:11:06.970Z,4.25
2019-05-22T14:13:37.984Z,4.37
2019-05-22T14:16:08.855Z,4.43
2019-05-22T14:18:38.655Z,4.97
2019-05-22T14:21:08.799Z,4.10
2019-05-22T14:23:38.703Z,4.10
2019-05-22T14:26:09.106Z,4.67
2019-05-22T14:28:40.262Z,5.50
2019-05-22T14:31:10.400Z,4.80
2019-05-22T14:33:41.326Z,5.10
2019-05-22T14:36:11.647Z,3.90
2019-05-22T14:38:42.752Z,4.45
2019-05-22T14:41:13.407Z,5.03
2019-05-22T14:43:44.071Z,4.58
2019-05-22T14:46:13.861Z,4.30
2019-05-22T14:48:44.417Z,4.62
2019-05-22T14:51:15.124Z,3.77
2019-05-22T14:53:46.102Z,4.62
2019-05-22T14:56:17.110Z,5.30
2019-05-22T14:58:48.090Z,3.02
2019-05-22T15:01:18.758Z,3.75
2019-05-22T15:03:49.330Z,3.90
2019-05-22T15:06:21.113Z,5.10
2019-05-22T15:08:50.822Z,4.37
2019-05-22T15:11:22.160Z,3.92
2019-05-22T15:13:52.286Z,3.47
2019-05-22T15:16:22.908Z,4.58
2019-05-22T15:18:53.271Z,3.10
2019-05-22T15:21:23.962Z,5.03
2019-05-22T15:23:55.410Z,3.85
2019-05-22T15:26:26.032Z,7.07
2019-05-22T15:28:57.058Z,4.30
2019-05-22T15:31:28.501Z,4.37
2019-05-22T15:34:01.589Z,3.90
2019-05-22T15:36:32.866Z,4.70
2019-05-22T15:39:06.334Z,4.55
2019-05-22T15:41:37.822Z,4.58
2019-05-22T15:44:08.823Z,3.52
2019-05-22T15:46:40.191Z,3.62
2019-05-22T15:49:13.133Z,4.90
2019-05-22T15:51:45.282Z,3.33
2019-05-22T15:54:17.962Z,4.25
2019-05-22T15:56:48.622Z,4.80
2019-05-22T15:59:20.426Z,3.42
2019-05-22T16:01:50.958Z,6.15
2019-05-22T16:04:23.324Z,4.63
2019-05-22T16:06:55.534Z,4.17
2019-05-22T16:09:27.185Z,4.75
2019-05-22T16:11:58.751Z,4.28
2019-05-22T16:14:31.474Z,4.87
2019-05-22T16:17:06.246Z,4.25
2019-05-22T16:19:36.896Z,4.47
2019-05-22T16:22:09.606Z,4.58
2019-05-22T16:24:41.031Z,5.00
2019-05-22T16:27:14.344Z,2.83
2019-05-22T16:29:46.885Z,4.90
2019-05-22T16:32:19.285Z,3.50
2019-05-22T16:34:49.805Z,4.50
2019-05-22T16:37:20.806Z,4.08
2019-05-22T16:39:50.965Z,3.90
2019-05-22T16:42:22.750Z,4.65
2019-05-22T16:44:52.984Z,4.35
2019-05-22T16:47:24.512Z,3.00
2019-05-22T16:49:55.419Z,4.28
2019-05-22T16:52:28.411Z,4.83
2019-05-22T16:54:59.856Z,3.25
2019-05-22T16:57:31.651Z,5.20
2019-05-22T17:00:02.349Z,3.75
2019-05-22T17:02:34.917Z,4.22
2019-05-22T17:05:06.058Z,5.50
2019-05-22T17:07:36.714Z,4.55
2019-05-22T17:10:07.415Z,4.37
2019-05-22T17:12:39.351Z,4.95
2019-05-22T17:15:14.219Z,4.55
2019-05-22T17:17:44.602Z,4.28
2019-05-22T17:20:16.562Z,4.15
2019-05-22T17:22:47.020Z,4.10
2019-05-22T17:25:19.602Z,4.12
2019-05-22T17:27:50.641Z,3.70
2019-05-22T17:30:23.080Z,3.95
2019-05-22T17:32:53.950Z,4.00
2019-05-22T17:35:24.598Z,3.80
2019-05-22T17:37:55.710Z,4.40
2019-05-22T17:40:26.473Z,4.20
2019-05-22T17:42:57.337Z,2.92
2019-05-22T17:45:28.374Z,4.45
2019-05-22T17:47:58.511Z,3.95
2019-05-22T17:50:29.598Z,3.33
2019-05-22T17:53:00.082Z,2.20
2019-05-22T17:55:30.169Z,2.50
2019-05-22T17:58:00.539Z,2.52
2019-05-22T18:00:34.982Z,3.02
2019-05-22T18:03:05.398Z,2.67
2019-05-22T18:05:36.628Z,3.45
2019-05-22T18:08:07.255Z,3.70
2019-05-22T18:10:40.348Z,3.12
2019-05-22T18:13:12.568Z,2.93
2019-05-22T18:15:43.089Z,3.55
2019-05-22T18:18:13.151Z,3.20
2019-05-22T18:20:44.238Z,2.08
2019-05-22T18:23:14.330Z,2.52
2019-05-22T18:25:45.118Z,2.37
2019-05-22T18:29:29.351Z,2.20
2019-05-22T18:31:59.494Z,3.33
2019-05-22T18:34:29.746Z,2.02
2019-05-22T18:36:59.620Z,2.27
2019-05-22T18:39:30.875Z,2.10
2019-05-22T18:42:00.574Z,1.98
2019-05-22T18:44:30.742Z,3.22
2019-05-22T18:47:00.587Z,2.15
2019-05-22T18:49:30.459Z,2.08
2019-05-22T18:52:00.386Z,2.10
2019-05-22T18:54:30.663Z,2.10
2019-05-22T18:57:01.140Z,2.92
2019-05-22T18:59:31.374Z,2.15
2019-05-22T19:02:01.427Z,2.10
2019-05-22T19:04:32.148Z,2.27
2019-05-22T19:07:02.273Z,2.00
2019-05-22T19:09:32.526Z,2.00
2019-05-22T19:12:02.813Z,3.80
2019-05-22T19:14:33.666Z,2.20
2019-05-22T19:17:03.984Z,2.17
2019-05-22T19:19:33.878Z,2.13
2019-05-22T19:22:04.015Z,2.40
2019-05-22T19:24:34.326Z,2.10
2019-05-22T19:27:04.367Z,2.20
2019-05-22T19:29:34.822Z,1.90
2019-05-22T19:32:05.022Z,3.17
2019-05-22T19:34:35.125Z,2.10
2019-05-22T19:37:05.646Z,2.10
2019-05-22T19:39:37.538Z,2.43
2019-05-22T19:42:09.042Z,2.22
2019-05-22T19:44:40.286Z,2.42
2019-05-22T19:47:11.331Z,2.70
2019-05-22T19:49:43.909Z,2.65
2019-05-22T19:52:16.177Z,2.25
2019-05-22T19:54:47.004Z,2.62
2019-05-22T19:57:17.259Z,2.20
2019-05-22T19:59:48.329Z,2.55
2019-05-22T20:02:18.386Z,2.75
2019-05-22T20:04:48.471Z,2.42
2019-05-22T20:07:18.750Z,2.30
2019-05-22T20:09:49.814Z,2.50
2019-05-22T20:12:24.761Z,2.50
2019-05-22T20:14:52.957Z,2.35
2019-05-22T20:17:22.930Z,2.70
2019-05-22T20:19:53.026Z,2.50
2019-05-22T20:22:23.394Z,2.50
2019-05-22T20:24:53.381Z,2.50
2019-05-22T20:27:24.130Z,2.47
2019-05-22T20:29:53.910Z,2.17
2019-05-22T20:32:24.175Z,2.10
2019-05-22T20:34:54.057Z,2.33
2019-05-22T20:37:24.239Z,2.83
2019-05-22T20:39:54.404Z,2.73
2019-05-22T20:42:24.705Z,2.72
2019-05-22T20:44:54.552Z,2.70
2019-05-22T20:47:27.074Z,2.42
2019-05-22T20:49:57.545Z,2.23
2019-05-22T20:52:30.260Z,3.05
2019-05-22T20:55:00.581Z,2.60
2019-05-22T20:57:32.751Z,2.47
2019-05-22T21:00:03.437Z,2.40
2019-05-22T21:02:34.348Z,2.90
2019-05-22T21:05:06.783Z,3.00
2019-05-22T21:07:40.982Z,3.47
2019-05-22T21:10:11.284Z,2.90
2019-05-22T21:12:42.987Z,3.12
2019-05-22T21:15:14.245Z,3.25
2019-05-22T21:17:45.144Z,4.40
2019-05-22T21:20:17.542Z,4.50
2019-05-22T21:22:47.860Z,5.70
2019-05-22T21:25:17.522Z,7.62
2019-05-22T21:27:47.334Z,3.97
2019-05-22T21:30:19.202Z,5.43
2019-05-22T21:32:49.302Z,4.62
2019-05-22T21:35:21.438Z,3.77
2019-05-22T21:37:51.270Z,4.80
2019-05-22T21:40:24.213Z,3.75
2019-05-22T21:42:54.889Z,3.77
2019-05-22T21:45:25.646Z,3.27
2019-05-22T21:47:56.502Z,3.70
2019-05-22T21:50:26.610Z,3.70
2019-05-22T21:52:56.662Z,3.62
2019-05-22T21:55:27.806Z,3.02
2019-05-22T21:57:58.118Z,3.30
2019-05-22T22:01:10.511Z,3.72
2019-05-22T22:03:44.074Z,3.22
2019-05-22T22:06:14.709Z,3.80
2019-05-22T22:08:45.249Z,4.53
2019-05-22T22:11:15.314Z,3.70
2019-05-22T22:13:45.527Z,4.10
2019-05-22T22:16:15.425Z,4.25
2019-05-22T22:18:46.728Z,3.98
2019-05-22T22:21:17.482Z,4.03
2019-05-22T22:23:47.749Z,3.87
2019-05-22T22:26:25.442Z,4.00
2019-05-22T22:28:49.643Z,4.13
2019-05-22T22:31:21.906Z,4.17
2019-05-22T22:33:55.946Z,4.08
2019-05-22T22:36:26.128Z,5.22
2019-05-22T22:38:57.252Z,5.33
2019-05-22T22:41:27.102Z,3.97
2019-05-22T22:43:58.617Z,4.15
2019-05-22T22:46:55.830Z,4.67
2019-05-22T22:49:29.424Z,4.20
2019-05-22T22:52:01.213Z,4.58
2019-05-22T22:54:32.577Z,5.13
2019-05-22T22:57:03.001Z,4.10
2019-05-22T22:59:32.926Z,4.47
2019-05-22T23:02:04.578Z,4.75
2019-05-22T23:04:35.275Z,4.58
2019-05-22T23:07:07.950Z,4.78
2019-05-22T23:09:40.617Z,4.90
2019-05-22T23:12:12.010Z,4.78
2019-05-22T23:14:45.607Z,4.43
2019-05-22T23:17:15.370Z,4.40
2019-05-22T23:19:44.517Z,4.50
2019-05-22T23:22:31.326Z,4.22
2019-05-22T23:25:02.881Z,4.50
2019-05-22T23:27:35.798Z,4.67
2019-05-22T23:30:09.624Z,4.40
2019-05-22T23:32:41.662Z,4.62
2019-05-22T23:35:13.549Z,4.37
2019-05-22T23:37:43.878Z,4.80
2019-05-22T23:40:16.029Z,4.60
2019-05-22T23:42:46.736Z,4.83
2019-05-22T23:45:20.523Z,4.92
2019-05-22T23:48:03.902Z,5.27
2019-05-22T23:50:35.410Z,4.40
2019-05-22T23:53:06.062Z,4.40
2019-05-22T23:55:36.559Z,4.70
2019-05-22T23:58:08.801Z,4.45
